QFA404 YMML-YSSY
Flight info
| Callsign | QFA404 |
|---|---|
| Flight time | 1h 0m |
| Altitude | 35000 |
| Route | DOSEL Y59 RIVET |
| Aircraft | B738/M-SDE2E3FGHIRWXY/LB1 |
Departure
| Time | 2026-05-07 14:27 |
|---|---|
| Airport | Melbourne Airport (YMML) |
Arrival
| Time | 2026-05-07 15:28 |
|---|---|
| Airport | Sydney Kingsford Smith International Airport (YSSY) |
| Time | Latitude | Longitude | Altitude | Speed | Heading |
|---|---|---|---|---|---|
| 2026-05-07 14:12 | -37.66765 | 144.85010 | 441 ft | 0 kts | 262° |
| 2026-05-07 14:19 | -37.66764 | 144.85017 | 441 ft | 2 kts | 262° |
| 2026-05-07 14:19 | -37.66761 | 144.85036 | 441 ft | 2 kts | 262° |
| 2026-05-07 14:19 | -37.66759 | 144.85054 | 441 ft | 2 kts | 262° |
| 2026-05-07 14:20 | -37.66762 | 144.85072 | 441 ft | 2 kts | 302° |
| 2026-05-07 14:20 | -37.66772 | 144.85086 | 441 ft | 2 kts | 335° |
| 2026-05-07 14:20 | -37.66783 | 144.85091 | 441 ft | 0 kts | 359° |
| 2026-05-07 14:20 | -37.66790 | 144.85089 | 441 ft | 1 kts | 2° |
| 2026-05-07 14:21 | -37.66791 | 144.85089 | 441 ft | 0 kts | 2° |
| 2026-05-07 14:22 | -37.66786 | 144.85089 | 441 ft | 0 kts | 355° |
| 2026-05-07 14:23 | -37.66785 | 144.85089 | 441 ft | 0 kts | 355° |
| 2026-05-07 14:23 | -37.66775 | 144.85089 | 441 ft | 4 kts | 0° |
| 2026-05-07 14:23 | -37.66707 | 144.85084 | 441 ft | 13 kts | 353° |
| 2026-05-07 14:24 | -37.66644 | 144.85072 | 441 ft | 3 kts | 351° |
| 2026-05-07 14:24 | -37.66620 | 144.85068 | 441 ft | 3 kts | 351° |
| 2026-05-07 14:24 | -37.66598 | 144.85063 | 441 ft | 3 kts | 350° |
| 2026-05-07 14:24 | -37.66576 | 144.85059 | 441 ft | 3 kts | 349° |
| 2026-05-07 14:25 | -37.66556 | 144.85054 | 441 ft | 2 kts | 356° |
| 2026-05-07 14:25 | -37.66518 | 144.85049 | 441 ft | 8 kts | 351° |
| 2026-05-07 14:25 | -37.66440 | 144.85004 | 441 ft | 16 kts | 320° |
| 2026-05-07 14:25 | -37.66345 | 144.84907 | 441 ft | 17 kts | 321° |
| 2026-05-07 14:26 | -37.66251 | 144.84813 | 441 ft | 16 kts | 316° |
| 2026-05-07 14:26 | -37.66214 | 144.84685 | 441 ft | 15 kts | 269° |
| 2026-05-07 14:26 | -37.66211 | 144.84538 | 441 ft | 28 kts | 274° |
| 2026-05-07 14:26 | -37.66174 | 144.83896 | 441 ft | 116 kts | 274° |
| 2026-05-07 14:27 | -37.66096 | 144.82579 | 612 ft | 172 kts | 274° |
| 2026-05-07 14:27 | -37.66010 | 144.81021 | 1465 ft | 189 kts | 271° |
| 2026-05-07 14:27 | -37.65946 | 144.79376 | 2643 ft | 187 kts | 270° |
| 2026-05-07 14:27 | -37.65799 | 144.77714 | 3354 ft | 200 kts | 271° |
| 2026-05-07 14:28 | -37.65635 | 144.75932 | 4003 ft | 214 kts | 269° |
| 2026-05-07 14:28 | -37.65528 | 144.74033 | 4847 ft | 221 kts | 267° |
| 2026-05-07 14:28 | -37.65435 | 144.72128 | 5790 ft | 223 kts | 266° |
| 2026-05-07 14:28 | -37.65335 | 144.70183 | 6647 ft | 229 kts | 266° |
| 2026-05-07 14:29 | -37.65174 | 144.68121 | 7318 ft | 248 kts | 273° |
| 2026-05-07 14:29 | -37.64441 | 144.66045 | 8032 ft | 278 kts | 301° |
| 2026-05-07 14:29 | -37.62839 | 144.64558 | 8901 ft | 302 kts | 328° |
| 2026-05-07 14:29 | -37.60844 | 144.63698 | 9781 ft | 311 kts | 337° |
| 2026-05-07 14:30 | -37.58717 | 144.63065 | 10515 ft | 326 kts | 346° |
| 2026-05-07 14:30 | -37.56345 | 144.63077 | 11020 ft | 352 kts | 5° |
| 2026-05-07 14:30 | -37.53949 | 144.63986 | 11538 ft | 372 kts | 22° |
| 2026-05-07 14:30 | -37.51687 | 144.65683 | 11989 ft | 390 kts | 39° |
| 2026-05-07 14:31 | -37.49766 | 144.68176 | 12475 ft | 404 kts | 51° |
| 2026-05-07 14:31 | -37.48027 | 144.70989 | 12943 ft | 418 kts | 56° |
| 2026-05-07 14:31 | -37.46414 | 144.74100 | 13490 ft | 428 kts | 61° |
| 2026-05-07 14:31 | -37.44944 | 144.77339 | 14305 ft | 430 kts | 64° |
| 2026-05-07 14:32 | -37.43509 | 144.80638 | 15105 ft | 434 kts | 64° |
| 2026-05-07 14:32 | -37.42059 | 144.83980 | 15848 ft | 439 kts | 64° |
| 2026-05-07 14:32 | -37.40579 | 144.87350 | 16522 ft | 445 kts | 63° |
| 2026-05-07 14:32 | -37.39061 | 144.90753 | 17206 ft | 451 kts | 63° |
| 2026-05-07 14:33 | -37.37508 | 144.94186 | 17928 ft | 455 kts | 63° |
| 2026-05-07 14:33 | -37.35915 | 144.97675 | 18644 ft | 459 kts | 63° |
| 2026-05-07 14:33 | -37.34312 | 145.01161 | 19244 ft | 466 kts | 63° |
| 2026-05-07 14:33 | -37.32692 | 145.04672 | 19973 ft | 468 kts | 63° |
| 2026-05-07 14:34 | -37.31065 | 145.08188 | 20612 ft | 473 kts | 62° |
| 2026-05-07 14:34 | -37.29399 | 145.11783 | 21277 ft | 477 kts | 62° |
| 2026-05-07 14:34 | -37.27732 | 145.15376 | 21870 ft | 481 kts | 63° |
| 2026-05-07 14:34 | -37.26037 | 145.19028 | 22436 ft | 486 kts | 63° |
| 2026-05-07 14:35 | -37.24340 | 145.22682 | 22994 ft | 491 kts | 62° |
| 2026-05-07 14:35 | -37.22620 | 145.26381 | 23600 ft | 494 kts | 63° |
| 2026-05-07 14:35 | -37.20883 | 145.30115 | 24160 ft | 499 kts | 62° |
| 2026-05-07 14:35 | -37.19137 | 145.33861 | 24716 ft | 502 kts | 63° |
| 2026-05-07 14:36 | -37.17366 | 145.37660 | 25254 ft | 507 kts | 62° |
| 2026-05-07 14:36 | -37.15532 | 145.41460 | 25831 ft | 510 kts | 60° |
| 2026-05-07 14:36 | -37.13573 | 145.45140 | 26293 ft | 517 kts | 57° |
| 2026-05-07 14:36 | -37.11455 | 145.48865 | 26753 ft | 522 kts | 56° |
| 2026-05-07 14:37 | -37.09318 | 145.52498 | 27274 ft | 525 kts | 55° |
| 2026-05-07 14:37 | -37.04914 | 145.59914 | 28416 ft | 529 kts | 55° |
| 2026-05-07 14:37 | -37.02753 | 145.63574 | 29178 ft | 525 kts | 55° |
| 2026-05-07 14:38 | -37.00573 | 145.67287 | 29847 ft | 524 kts | 54° |
| 2026-05-07 14:38 | -36.98449 | 145.70923 | 30335 ft | 525 kts | 55° |
| 2026-05-07 14:38 | -36.96283 | 145.74648 | 30767 ft | 527 kts | 54° |
| 2026-05-07 14:38 | -36.94126 | 145.78363 | 31270 ft | 527 kts | 54° |
| 2026-05-07 14:39 | -36.91990 | 145.82048 | 31763 ft | 526 kts | 54° |
| 2026-05-07 14:39 | -36.89853 | 145.85735 | 32223 ft | 526 kts | 54° |
| 2026-05-07 14:39 | -36.87682 | 145.89478 | 32558 ft | 529 kts | 53° |
| 2026-05-07 14:39 | -36.85522 | 145.93196 | 32976 ft | 529 kts | 53° |
| 2026-05-07 14:40 | -36.83370 | 145.96899 | 33365 ft | 529 kts | 53° |
| 2026-05-07 14:40 | -36.81217 | 146.00600 | 33845 ft | 527 kts | 52° |
| 2026-05-07 14:40 | -36.79084 | 146.04263 | 34188 ft | 529 kts | 52° |
| 2026-05-07 14:40 | -36.76911 | 146.07987 | 34480 ft | 531 kts | 52° |
| 2026-05-07 14:41 | -36.74736 | 146.11708 | 34923 ft | 528 kts | 52° |
| 2026-05-07 14:41 | -36.72595 | 146.15372 | 35151 ft | 530 kts | 52° |
| 2026-05-07 14:41 | -36.68253 | 146.22786 | 35186 ft | 526 kts | 52° |
| 2026-05-07 14:42 | -36.63945 | 146.30119 | 35185 ft | 527 kts | 52° |
| 2026-05-07 14:42 | -36.59624 | 146.37457 | 35194 ft | 527 kts | 52° |
| 2026-05-07 14:43 | -36.55309 | 146.44778 | 35199 ft | 526 kts | 52° |
| 2026-05-07 14:43 | -36.50971 | 146.52119 | 35207 ft | 526 kts | 52° |
| 2026-05-07 14:44 | -36.46664 | 146.59390 | 35196 ft | 526 kts | 51° |
| 2026-05-07 14:44 | -36.42336 | 146.66689 | 35188 ft | 525 kts | 51° |
| 2026-05-07 14:45 | -36.37995 | 146.73990 | 35180 ft | 525 kts | 51° |
| 2026-05-07 14:45 | -36.33667 | 146.81250 | 35175 ft | 526 kts | 51° |
| 2026-05-07 14:46 | -36.29299 | 146.88559 | 35182 ft | 526 kts | 51° |
| 2026-05-07 14:46 | -36.24951 | 146.95824 | 35186 ft | 526 kts | 51° |
| 2026-05-07 14:47 | -36.20601 | 147.03073 | 35195 ft | 525 kts | 51° |
| 2026-05-07 14:47 | -36.16244 | 147.10323 | 35191 ft | 525 kts | 51° |
| 2026-05-07 14:48 | -36.11906 | 147.17525 | 35189 ft | 525 kts | 51° |
| 2026-05-07 14:48 | -36.07539 | 147.24756 | 35187 ft | 525 kts | 50° |
| 2026-05-07 14:49 | -36.03189 | 147.31944 | 35183 ft | 526 kts | 50° |
| 2026-05-07 14:49 | -35.98822 | 147.39146 | 35185 ft | 524 kts | 50° |
| 2026-05-07 14:50 | -35.94460 | 147.46327 | 35185 ft | 524 kts | 50° |
| 2026-05-07 14:50 | -35.90071 | 147.53537 | 35184 ft | 524 kts | 50° |
| 2026-05-07 14:51 | -35.85754 | 147.60614 | 35182 ft | 523 kts | 50° |
| 2026-05-07 14:51 | -35.81438 | 147.67676 | 35177 ft | 521 kts | 50° |
| 2026-05-07 14:52 | -35.77091 | 147.74767 | 35168 ft | 521 kts | 50° |
| 2026-05-07 14:52 | -35.72728 | 147.81873 | 35168 ft | 523 kts | 50° |
| 2026-05-07 14:53 | -35.68347 | 147.88997 | 35179 ft | 520 kts | 50° |
| 2026-05-07 14:53 | -35.63982 | 147.96081 | 35186 ft | 521 kts | 50° |
| 2026-05-07 14:54 | -35.59618 | 148.03148 | 35186 ft | 519 kts | 50° |
| 2026-05-07 14:54 | -35.55265 | 148.10181 | 35175 ft | 519 kts | 49° |
| 2026-05-07 14:55 | -35.50879 | 148.17256 | 35180 ft | 519 kts | 49° |
| 2026-05-07 14:55 | -35.46522 | 148.24262 | 35185 ft | 519 kts | 50° |
| 2026-05-07 14:56 | -35.42141 | 148.31302 | 35177 ft | 519 kts | 49° |
| 2026-05-07 14:56 | -35.37772 | 148.38306 | 35157 ft | 519 kts | 49° |
| 2026-05-07 14:57 | -35.33408 | 148.45281 | 35143 ft | 519 kts | 49° |
| 2026-05-07 14:57 | -35.29047 | 148.52243 | 35136 ft | 518 kts | 49° |
| 2026-05-07 14:58 | -35.24647 | 148.59253 | 35133 ft | 517 kts | 49° |
| 2026-05-07 14:58 | -35.20295 | 148.66170 | 35138 ft | 517 kts | 49° |
| 2026-05-07 14:59 | -35.15895 | 148.73149 | 35136 ft | 517 kts | 49° |
| 2026-05-07 14:59 | -35.11519 | 148.80081 | 35142 ft | 515 kts | 49° |
| 2026-05-07 15:00 | -35.07154 | 148.86983 | 35147 ft | 515 kts | 48° |
| 2026-05-07 15:00 | -35.02774 | 148.93892 | 35140 ft | 517 kts | 49° |
| 2026-05-07 15:01 | -34.98409 | 149.00763 | 35138 ft | 517 kts | 48° |
| 2026-05-07 15:01 | -34.94011 | 149.07672 | 35124 ft | 516 kts | 49° |
| 2026-05-07 15:02 | -34.89615 | 149.14568 | 35134 ft | 515 kts | 48° |
| 2026-05-07 15:02 | -34.85214 | 149.21455 | 35143 ft | 515 kts | 49° |
| 2026-05-07 15:03 | -34.80821 | 149.28317 | 35146 ft | 515 kts | 48° |
| 2026-05-07 15:03 | -34.76495 | 149.35080 | 35144 ft | 514 kts | 50° |
| 2026-05-07 15:04 | -34.72535 | 149.42258 | 34862 ft | 512 kts | 56° |
| 2026-05-07 15:04 | -34.70761 | 149.46011 | 34353 ft | 510 kts | 58° |
| 2026-05-07 15:04 | -34.69094 | 149.49751 | 33621 ft | 511 kts | 60° |
| 2026-05-07 15:05 | -34.67433 | 149.53589 | 32821 ft | 513 kts | 60° |
| 2026-05-07 15:05 | -34.65786 | 149.57439 | 32013 ft | 515 kts | 61° |
| 2026-05-07 15:05 | -34.64146 | 149.61276 | 31168 ft | 516 kts | 61° |
| 2026-05-07 15:05 | -34.62492 | 149.65128 | 30309 ft | 519 kts | 60° |
| 2026-05-07 15:06 | -34.60817 | 149.69014 | 29436 ft | 520 kts | 60° |
| 2026-05-07 15:06 | -34.59148 | 149.72865 | 28788 ft | 517 kts | 60° |
| 2026-05-07 15:06 | -34.57483 | 149.76691 | 28157 ft | 513 kts | 61° |
| 2026-05-07 15:06 | -34.55832 | 149.80464 | 27484 ft | 510 kts | 60° |
| 2026-05-07 15:07 | -34.54165 | 149.84262 | 26794 ft | 507 kts | 61° |
| 2026-05-07 15:07 | -34.52522 | 149.87994 | 26106 ft | 504 kts | 61° |
| 2026-05-07 15:07 | -34.50885 | 149.91705 | 25438 ft | 501 kts | 61° |
| 2026-05-07 15:07 | -34.49231 | 149.95451 | 24762 ft | 498 kts | 62° |
| 2026-05-07 15:08 | -34.47623 | 149.99086 | 24108 ft | 495 kts | 62° |
| 2026-05-07 15:08 | -34.45993 | 150.02763 | 23409 ft | 493 kts | 62° |
| 2026-05-07 15:08 | -34.44383 | 150.06392 | 22731 ft | 491 kts | 62° |
| 2026-05-07 15:08 | -34.42773 | 150.10017 | 22013 ft | 488 kts | 63° |
| 2026-05-07 15:09 | -34.41173 | 150.13621 | 21327 ft | 485 kts | 63° |
| 2026-05-07 15:09 | -34.39581 | 150.17198 | 20644 ft | 482 kts | 63° |
| 2026-05-07 15:09 | -34.38010 | 150.20728 | 19938 ft | 480 kts | 63° |
| 2026-05-07 15:09 | -34.36423 | 150.24287 | 19249 ft | 476 kts | 63° |
| 2026-05-07 15:10 | -34.34875 | 150.27754 | 18566 ft | 474 kts | 64° |
| 2026-05-07 15:10 | -34.33312 | 150.31255 | 17859 ft | 470 kts | 64° |
| 2026-05-07 15:10 | -34.31769 | 150.34709 | 17166 ft | 467 kts | 64° |
| 2026-05-07 15:10 | -34.30232 | 150.38150 | 16457 ft | 464 kts | 64° |
| 2026-05-07 15:11 | -34.28716 | 150.41536 | 15777 ft | 460 kts | 64° |
| 2026-05-07 15:11 | -34.27204 | 150.44914 | 15079 ft | 456 kts | 64° |
| 2026-05-07 15:11 | -34.25706 | 150.48257 | 14394 ft | 443 kts | 65° |
| 2026-05-07 15:11 | -34.24277 | 150.51447 | 13732 ft | 430 kts | 65° |
| 2026-05-07 15:12 | -34.22871 | 150.54582 | 13055 ft | 418 kts | 65° |
| 2026-05-07 15:12 | -34.21503 | 150.57636 | 12409 ft | 407 kts | 65° |
| 2026-05-07 15:12 | -34.20177 | 150.60594 | 11772 ft | 396 kts | 65° |
| 2026-05-07 15:12 | -34.18893 | 150.63455 | 11184 ft | 386 kts | 66° |
| 2026-05-07 15:13 | -34.17639 | 150.66251 | 10762 ft | 371 kts | 65° |
| 2026-05-07 15:13 | -34.16434 | 150.68924 | 10615 ft | 350 kts | 66° |
| 2026-05-07 15:13 | -34.15305 | 150.71425 | 10518 ft | 333 kts | 66° |
| 2026-05-07 15:13 | -34.14194 | 150.73908 | 10392 ft | 336 kts | 66° |
| 2026-05-07 15:14 | -34.13114 | 150.76321 | 10200 ft | 326 kts | 66° |
| 2026-05-07 15:14 | -34.12041 | 150.78708 | 9798 ft | 323 kts | 66° |
| 2026-05-07 15:14 | -34.10970 | 150.81096 | 9402 ft | 321 kts | 66° |
| 2026-05-07 15:14 | -34.09920 | 150.83427 | 9124 ft | 316 kts | 66° |
| 2026-05-07 15:15 | -34.08884 | 150.85725 | 8982 ft | 306 kts | 66° |
| 2026-05-07 15:15 | -34.07865 | 150.87987 | 8961 ft | 304 kts | 66° |
| 2026-05-07 15:15 | -34.06863 | 150.90224 | 8773 ft | 306 kts | 66° |
| 2026-05-07 15:15 | -34.05850 | 150.92474 | 8557 ft | 301 kts | 66° |
| 2026-05-07 15:16 | -34.04852 | 150.94687 | 8308 ft | 299 kts | 66° |
| 2026-05-07 15:16 | -34.03897 | 150.96881 | 8062 ft | 295 kts | 70° |
| 2026-05-07 15:16 | -34.03279 | 150.99167 | 7811 ft | 285 kts | 88° |
| 2026-05-07 15:16 | -34.03476 | 151.01463 | 7549 ft | 268 kts | 118° |
| 2026-05-07 15:17 | -34.04442 | 151.03262 | 7225 ft | 252 kts | 140° |
| 2026-05-07 15:17 | -34.05681 | 151.04742 | 6898 ft | 250 kts | 141° |
| 2026-05-07 15:17 | -34.06895 | 151.06255 | 6561 ft | 249 kts | 140° |
| 2026-05-07 15:17 | -34.08148 | 151.07636 | 6225 ft | 242 kts | 151° |
| 2026-05-07 15:18 | -34.09645 | 151.08375 | 5903 ft | 230 kts | 172° |
| 2026-05-07 15:18 | -34.11213 | 151.08685 | 5578 ft | 226 kts | 175° |
| 2026-05-07 15:18 | -34.12743 | 151.08987 | 5342 ft | 219 kts | 174° |
| 2026-05-07 15:18 | -34.14222 | 151.09340 | 5135 ft | 213 kts | 173° |
| 2026-05-07 15:19 | -34.15667 | 151.09714 | 4926 ft | 206 kts | 173° |
| 2026-05-07 15:19 | -34.17055 | 151.10074 | 4723 ft | 203 kts | 173° |
| 2026-05-07 15:19 | -34.18417 | 151.10426 | 4517 ft | 198 kts | 173° |
| 2026-05-07 15:19 | -34.19754 | 151.10773 | 4335 ft | 192 kts | 173° |
| 2026-05-07 15:20 | -34.21040 | 151.11113 | 4191 ft | 185 kts | 171° |
| 2026-05-07 15:20 | -34.22157 | 151.11926 | 4062 ft | 200 kts | 133° |
| 2026-05-07 15:20 | -34.22615 | 151.13541 | 3946 ft | 212 kts | 103° |
| 2026-05-07 15:20 | -34.22763 | 151.15324 | 3822 ft | 212 kts | 101° |
| 2026-05-07 15:21 | -34.22911 | 151.17087 | 3698 ft | 212 kts | 102° |
| 2026-05-07 15:21 | -34.23073 | 151.18875 | 3570 ft | 213 kts | 102° |
| 2026-05-07 15:21 | -34.23174 | 151.20627 | 3433 ft | 210 kts | 88° |
| 2026-05-07 15:21 | -34.22574 | 151.22186 | 3298 ft | 211 kts | 41° |
| 2026-05-07 15:22 | -34.21298 | 151.23041 | 3177 ft | 209 kts | 19° |
| 2026-05-07 15:22 | -34.19907 | 151.23590 | 3049 ft | 205 kts | 6° |
| 2026-05-07 15:22 | -34.18523 | 151.23645 | 2964 ft | 196 kts | 347° |
| 2026-05-07 15:22 | -34.17178 | 151.23384 | 2954 ft | 197 kts | 343° |
| 2026-05-07 15:23 | -34.15820 | 151.23061 | 2953 ft | 197 kts | 342° |
| 2026-05-07 15:23 | -34.14479 | 151.22725 | 2953 ft | 196 kts | 342° |
| 2026-05-07 15:23 | -34.13147 | 151.22385 | 2954 ft | 196 kts | 341° |
| 2026-05-07 15:23 | -34.11820 | 151.22041 | 2959 ft | 197 kts | 341° |
| 2026-05-07 15:24 | -34.10483 | 151.21698 | 2887 ft | 190 kts | 341° |
| 2026-05-07 15:24 | -34.09217 | 151.21378 | 2670 ft | 178 kts | 340° |
| 2026-05-07 15:24 | -34.08577 | 151.21211 | 2532 ft | 177 kts | 340° |
| 2026-05-07 15:24 | -34.07499 | 151.20927 | 2310 ft | 174 kts | 340° |
| 2026-05-07 15:25 | -34.06319 | 151.20619 | 2074 ft | 168 kts | 339° |
| 2026-05-07 15:25 | -34.05179 | 151.20328 | 1834 ft | 166 kts | 338° |
| 2026-05-07 15:25 | -34.04062 | 151.20035 | 1605 ft | 165 kts | 339° |
| 2026-05-07 15:25 | -34.02944 | 151.19740 | 1378 ft | 159 kts | 339° |
| 2026-05-07 15:26 | -34.01898 | 151.19473 | 1167 ft | 148 kts | 340° |
| 2026-05-07 15:26 | -34.00919 | 151.19228 | 991 ft | 141 kts | 339° |
| 2026-05-07 15:26 | -33.99966 | 151.18970 | 777 ft | 139 kts | 340° |
| 2026-05-07 15:26 | -33.99025 | 151.18729 | 591 ft | 139 kts | 341° |
| 2026-05-07 15:27 | -33.98063 | 151.18483 | 398 ft | 138 kts | 342° |
| 2026-05-07 15:27 | -33.97114 | 151.18224 | 261 ft | 145 kts | 341° |
| 2026-05-07 15:27 | -33.96139 | 151.17992 | 36 ft | 136 kts | 345° |
| 2026-05-07 15:27 | -33.95396 | 151.17783 | 29 ft | 82 kts | 348° |
| 2026-05-07 15:28 | -33.94985 | 151.17693 | 28 ft | 43 kts | 347° |
| 2026-05-07 15:28 | -33.94706 | 151.17647 | 28 ft | 22 kts | 359° |
| 2026-05-07 15:28 | -33.94591 | 151.17659 | 28 ft | 17 kts | 11° |
| 2026-05-07 15:28 | -33.94476 | 151.17700 | 28 ft | 16 kts | 14° |
| 2026-05-07 15:29 | -33.94403 | 151.17728 | 28 ft | 9 kts | 18° |
| 2026-05-07 15:29 | -33.94335 | 151.17738 | 28 ft | 10 kts | 352° |
| 2026-05-07 15:29 | -33.94271 | 151.17717 | 28 ft | 9 kts | 343° |
| 2026-05-07 15:29 | -33.94212 | 151.17696 | 28 ft | 8 kts | 347° |
| 2026-05-07 15:30 | -33.94158 | 151.17682 | 28 ft | 7 kts | 348° |
| 2026-05-07 15:30 | -33.94110 | 151.17670 | 28 ft | 6 kts | 347° |
| 2026-05-07 15:30 | -33.94068 | 151.17658 | 28 ft | 5 kts | 346° |
| 2026-05-07 15:30 | -33.94031 | 151.17647 | 28 ft | 4 kts | 346° |
| 2026-05-07 15:31 | -33.94001 | 151.17638 | 28 ft | 4 kts | 345° |
| 2026-05-07 15:31 | -33.93972 | 151.17629 | 28 ft | 4 kts | 345° |
| 2026-05-07 15:31 | -33.93946 | 151.17622 | 28 ft | 3 kts | 349° |
| 2026-05-07 15:31 | -33.93918 | 151.17616 | 28 ft | 5 kts | 352° |
| 2026-05-07 15:32 | -33.93879 | 151.17633 | 28 ft | 6 kts | 56° |
| 2026-05-07 15:32 | -33.93862 | 151.17682 | 28 ft | 5 kts | 63° |
| 2026-05-07 15:32 | -33.93831 | 151.17706 | 28 ft | 5 kts | 5° |
| 2026-05-07 15:32 | -33.93796 | 151.17700 | 28 ft | 4 kts | 347° |
| 2026-05-07 15:33 | -33.93767 | 151.17693 | 28 ft | 4 kts | 347° |
| 2026-05-07 15:33 | -33.93739 | 151.17685 | 28 ft | 3 kts | 346° |
| 2026-05-07 15:33 | -33.93713 | 151.17676 | 28 ft | 3 kts | 342° |
| 2026-05-07 15:33 | -33.93706 | 151.17674 | 28 ft | 0 kts | 340° |
| 2026-05-07 15:34 | -33.93690 | 151.17665 | 28 ft | 4 kts | 333° |
| 2026-05-07 15:34 | -33.93651 | 151.17639 | 28 ft | 7 kts | 333° |
| 2026-05-07 15:34 | -33.93622 | 151.17622 | 28 ft | 0 kts | 338° |
| 2026-05-07 15:34 | -33.93612 | 151.17629 | 28 ft | 4 kts | 56° |
| 2026-05-07 15:35 | -33.93602 | 151.17670 | 28 ft | 4 kts | 77° |
| 2026-05-07 15:35 | -33.93597 | 151.17696 | 28 ft | 0 kts | 77° |